Time;durP1;ratioP1;P1;durP2;ratioP2;P2;SDS_P1;SDS_P2;PMS_P1;PMS_P2;Temp;Humidity;BMP_temperature;BMP_pressure;BME280_temperature;BME280_humidity;BME280_pressure;Samples;Min_cycle;Max_cycle;Signal;HPM_P1;HPM_P2
2023/01/21 00:00:08;;;;;;;25.20;10.52;;;2.10;78.20;;;;;;4995638;28;20054;-86
2023/01/21 00:02:35;;;;;;;25.42;9.95;;;2.00;78.10;;;;;;5013984;28;20058;-86
2023/01/21 00:05:03;;;;;;;23.88;9.88;;;2.00;78.10;;;;;;4996977;28;20078;-86
2023/01/21 00:07:30;;;;;;;26.17;9.97;;;2.00;78.00;;;;;;4992562;28;20133;-87
2023/01/21 00:09:57;;;;;;;22.52;9.40;;;2.00;78.00;;;;;;4994266;28;20305;-85
2023/01/21 00:12:25;;;;;;;26.15;10.23;;;2.00;78.10;;;;;;4993643;28;20145;-86
2023/01/21 00:14:53;;;;;;;23.73;10.43;;;2.00;78.20;;;;;;4996987;28;20081;-87
2023/01/21 00:17:20;;;;;;;27.98;10.43;;;1.90;78.10;;;;;;5012988;28;20050;-86
2023/01/21 00:19:47;;;;;;;26.27;10.20;;;1.90;78.10;;;;;;4993106;28;20167;-86
2023/01/21 00:22:14;;;;;;;26.17;11.25;;;1.90;78.10;;;;;;4995824;28;21090;-85
2023/01/21 00:24:41;;;;;;;28.63;11.35;;;1.90;78.20;;;;;;4988517;28;20085;-85
2023/01/21 00:27:08;;;;;;;25.55;10.35;;;1.90;78.10;;;;;;5012477;28;20046;-86
2023/01/21 00:29:37;;;;;;;27.20;11.00;;;1.80;78.00;;;;;;4994401;28;20042;-87
2023/01/21 00:32:05;;;;;;;23.43;9.63;;;1.80;78.20;;;;;;4996355;28;20885;-85
2023/01/21 00:34:33;;;;;;;24.20;9.75;;;1.80;78.50;;;;;;4996706;28;20340;-86
2023/01/21 00:37:00;;;;;;;26.83;10.20;;;1.70;78.40;;;;;;5010990;28;20152;-87
2023/01/21 00:39:27;;;;;;;27.63;10.73;;;1.70;78.50;;;;;;4991338;28;20206;-86
2023/01/21 00:41:54;;;;;;;25.92;10.55;;;1.70;78.80;;;;;;5000144;28;20058;-86
2023/01/21 00:44:21;;;;;;;25.50;10.20;;;1.70;78.90;;;;;;4996142;28;20137;-87
2023/01/21 00:46:48;;;;;;;26.70;10.20;;;1.70;78.80;;;;;;5011723;28;20289;-86
2023/01/21 00:49:16;;;;;;;26.27;10.27;;;1.60;78.80;;;;;;4996163;28;20046;-86
2023/01/21 00:51:43;;;;;;;24.13;10.65;;;1.60;79.00;;;;;;5012412;28;20896;-86
2023/01/21 00:54:11;;;;;;;25.92;10.52;;;1.60;79.10;;;;;;4995898;28;20181;-86
2023/01/21 00:56:38;;;;;;;28.23;10.73;;;1.60;79.10;;;;;;5012447;28;20082;-87
2023/01/21 00:59:06;;;;;;;27.98;10.77;;;1.60;79.20;;;;;;5009151;28;20254;-87
2023/01/21 01:01:36;;;;;;;27.58;10.75;;;1.60;79.30;;;;;;4982008;28;20161;-87
2023/01/21 01:04:04;;;;;;;28.45;10.35;;;1.60;79.30;;;;;;4991865;28;20047;-86
2023/01/21 01:06:33;;;;;;;25.23;10.68;;;1.70;79.30;;;;;;5011960;28;20085;-87
2023/01/21 01:09:00;;;;;;;28.97;10.77;;;1.70;79.40;;;;;;4988324;28;20073;-86
2023/01/21 01:11:28;;;;;;;28.92;10.80;;;1.60;79.40;;;;;;4995586;28;20293;-86
2023/01/21 01:13:55;;;;;;;29.38;11.13;;;1.70;79.50;;;;;;5004266;28;20134;-87
2023/01/21 01:16:23;;;;;;;26.30;10.90;;;1.70;79.60;;;;;;5007779;28;20209;-87
2023/01/21 01:18:53;;;;;;;25.88;10.98;;;1.60;79.50;;;;;;5008898;28;20074;-87
2023/01/21 01:21:22;;;;;;;26.83;10.10;;;1.70;79.70;;;;;;4987342;28;20137;-85
2023/01/21 01:23:53;;;;;;;25.90;10.52;;;1.60;79.50;;;;;;4996065;28;20341;-86
2023/01/21 01:26:22;;;;;;;27.40;11.10;;;1.60;79.50;;;;;;4992759;28;20120;-86
2023/01/21 01:28:49;;;;;;;27.92;11.23;;;1.60;79.60;;;;;;5005243;28;20046;-87
2023/01/21 01:31:18;;;;;;;25.73;10.10;;;1.60;79.70;;;;;;4994077;28;20056;-85
2023/01/21 01:33:46;;;;;;;28.23;10.77;;;1.60;79.70;;;;;;4996355;28;20062;-87
2023/01/21 01:36:15;;;;;;;28.27;10.35;;;1.60;79.80;;;;;;4998167;28;20321;-87
2023/01/21 01:39:06;;;;;;;29.85;11.23;;;1.60;79.80;;;;;;5000634;28;20104;-87
2023/01/21 01:41:34;;;;;;;26.92;10.85;;;1.60;79.80;;;;;;4995459;28;20047;-85
2023/01/21 01:44:04;;;;;;;29.48;11.35;;;1.60;79.80;;;;;;5010724;28;20064;-87
2023/01/21 01:46:33;;;;;;;25.17;9.57;;;1.60;79.90;;;;;;4998724;28;20646;-86
2023/01/21 01:49:11;;;;;;;26.10;9.73;;;1.60;79.90;;;;;;4995295;28;20258;-86
2023/01/21 01:51:46;;;;;;;30.13;10.52;;;1.60;79.90;;;;;;4983888;28;21180;-86
2023/01/21 01:54:18;;;;;;;29.13;10.50;;;1.60;80.10;;;;;;4997771;28;20201;-86
2023/01/21 01:56:49;;;;;;;28.02;10.50;;;1.60;80.10;;;;;;4999047;28;20141;-87
2023/01/21 01:59:16;;;;;;;25.23;9.10;;;1.60;80.20;;;;;;4997512;28;20057;-86
2023/01/21 02:01:44;;;;;;;25.77;10.05;;;1.70;80.20;;;;;;4995525;28;20282;-87
2023/01/21 02:04:17;;;;;;;29.05;10.90;;;1.70;80.20;;;;;;5014690;28;20121;-86
2023/01/21 02:06:46;;;;;;;26.35;10.10;;;1.70;80.20;;;;;;4998542;28;20108;-86
2023/01/21 02:09:14;;;;;;;27.52;10.45;;;1.70;80.30;;;;;;4998466;28;20058;-86
2023/01/21 02:11:41;;;;;;;26.00;10.53;;;1.70;80.20;;;;;;5013689;28;20549;-85
2023/01/21 02:14:09;;;;;;;24.90;9.50;;;1.70;80.30;;;;;;4998321;28;20955;-86
2023/01/21 02:17:02;;;;;;;27.85;10.40;;;1.70;80.30;;;;;;4998903;28;20163;-87
2023/01/21 02:20:09;;;;;;;29.27;9.82;;;1.70;80.40;;;;;;4996685;28;20100;-87
2023/01/21 02:22:42;;;;;;;28.88;10.35;;;1.70;80.50;;;;;;5007102;28;20177;-87
2023/01/21 02:25:52;;;;;;;27.07;10.10;;;1.70;80.40;;;;;;5013224;28;20113;-85
2023/01/21 02:29:04;;;;;;;25.13;9.80;;;1.70;80.50;;;;;;4996071;28;20266;-87
2023/01/21 02:31:53;;;;;;;26.98;9.75;;;1.60;80.50;;;;;;4996925;28;20086;-86
2023/01/21 02:34:32;;;;;;;28.42;10.32;;;1.60;80.50;;;;;;4998822;28;20058;-87
2023/01/21 02:37:08;;;;;;;29.02;9.90;;;1.70;80.70;;;;;;5014850;28;20049;-86
2023/01/21 02:40:05;;;;;;;24.43;8.57;;;1.70;80.70;;;;;;4998100;28;20511;-86
2023/01/21 02:42:41;;;;;;;28.52;10.45;;;1.70;80.80;;;;;;4980685;28;20376;-86
2023/01/21 02:45:21;;;;;;;26.38;10.55;;;1.70;80.80;;;;;;4998511;28;20183;-86
2023/01/21 02:47:55;;;;;;;30.45;10.63;;;1.70;80.80;;;;;;4998506;28;20543;-86
2023/01/21 02:50:26;;;;;;;29.63;10.23;;;1.70;80.80;;;;;;4995411;28;20591;-87
2023/01/21 02:52:57;;;;;;;28.63;10.93;;;1.70;80.90;;;;;;5014740;28;20046;-86
2023/01/21 02:55:28;;;;;;;29.83;10.82;;;1.70;80.90;;;;;;4998802;28;20309;-87
2023/01/21 02:57:59;;;;;;;30.20;10.32;;;1.80;80.90;;;;;;4998249;28;20085;-86
2023/01/21 03:00:31;;;;;;;29.02;10.57;;;1.80;80.90;;;;;;4997243;28;20058;-85
2023/01/21 03:03:41;;;;;;;26.80;9.95;;;1.80;81.00;;;;;;5007641;28;20065;-86
2023/01/21 03:06:36;;;;;;;28.97;10.20;;;1.80;80.90;;;;;;4963038;28;20167;-86
2023/01/21 03:09:10;;;;;;;31.52;10.35;;;1.80;80.90;;;;;;5014525;28;20277;-87
2023/01/21 03:11:37;;;;;;;26.08;9.25;;;1.80;80.90;;;;;;4997810;28;20058;-87
2023/01/21 03:17:08;;;;;;;22.05;8.65;;;1.80;81.10;;;;;;4998441;28;20050;-87
2023/01/21 03:19:41;;;;;;;26.20;9.07;;;1.80;81.10;;;;;;4997503;28;20049;-87
2023/01/21 03:22:13;;;;;;;29.55;9.43;;;1.70;81.10;;;;;;4996889;28;20254;-86
2023/01/21 03:24:43;;;;;;;24.17;9.48;;;1.70;81.20;;;;;;5011154;28;20089;-85
2023/01/21 03:27:16;;;;;;;26.30;8.73;;;1.60;81.40;;;;;;4993943;28;20993;-87
2023/01/21 03:29:46;;;;;;;27.80;8.98;;;1.60;81.60;;;;;;4995127;28;20502;-86
2023/01/21 03:32:18;;;;;;;26.97;9.70;;;1.60;81.80;;;;;;5011937;28;20597;-88
2023/01/21 03:34:50;;;;;;;23.48;9.00;;;1.60;82.10;;;;;;4998123;28;20368;-86
2023/01/21 03:37:27;;;;;;;30.00;10.38;;;1.60;82.20;;;;;;4997560;28;20132;-87
2023/01/21 03:40:03;;;;;;;26.83;10.40;;;1.60;82.30;;;;;;4997391;28;20151;-86
2023/01/21 03:42:30;;;;;;;28.85;10.15;;;1.60;82.20;;;;;;4993746;28;20051;-87
2023/01/21 03:44:58;;;;;;;33.10;11.00;;;1.60;82.20;;;;;;4997200;28;20045;-87
2023/01/21 03:47:30;;;;;;;29.45;10.25;;;1.60;82.10;;;;;;5013958;28;20273;-86
2023/01/21 03:50:00;;;;;;;26.95;10.55;;;1.60;82.10;;;;;;4996899;28;20088;-85
2023/01/21 03:52:29;;;;;;;29.67;10.80;;;1.70;82.10;;;;;;5014055;28;20192;-86
2023/01/21 03:54:56;;;;;;;28.90;10.98;;;1.70;82.10;;;;;;4996784;28;20076;-86
2023/01/21 03:57:23;;;;;;;28.67;10.60;;;1.70;82.10;;;;;;5013053;28;20141;-87
2023/01/21 03:59:51;;;;;;;29.02;9.98;;;1.70;82.10;;;;;;5013838;28;20285;-87
2023/01/21 04:02:19;;;;;;;26.58;10.35;;;1.80;82.10;;;;;;4992001;28;20054;-86
2023/01/21 04:04:47;;;;;;;26.42;9.88;;;1.80;82.10;;;;;;4994405;28;20046;-86
2023/01/21 04:07:14;;;;;;;27.95;9.43;;;1.80;82.00;;;;;;4993688;28;20161;-86
2023/01/21 04:09:43;;;;;;;27.37;10.97;;;1.80;81.90;;;;;;4977506;28;20535;-86
2023/01/21 04:12:10;;;;;;;26.92;10.88;;;1.80;81.90;;;;;;4991390;28;20269;-86
2023/01/21 04:14:38;;;;;;;27.17;9.93;;;1.80;81.80;;;;;;5013342;28;20171;-86
2023/01/21 04:17:05;;;;;;;29.05;10.00;;;1.80;81.80;;;;;;4996700;28;20490;-87
2023/01/21 04:19:32;;;;;;;30.23;10.70;;;1.80;82.00;;;;;;4996508;28;20077;-86
2023/01/21 04:22:00;;;;;;;28.70;10.70;;;1.80;81.90;;;;;;4988895;28;20142;-85
2023/01/21 04:24:27;;;;;;;28.52;10.65;;;1.80;81.90;;;;;;5001970;28;20402;-86
2023/01/21 04:26:55;;;;;;;28.13;10.40;;;1.90;81.80;;;;;;4990628;28;20054;-86
2023/01/21 04:29:22;;;;;;;28.42;10.65;;;1.80;81.80;;;;;;5026593;28;20145;-86
2023/01/21 04:31:49;;;;;;;26.23;9.88;;;1.80;81.70;;;;;;4996827;28;20051;-86
2023/01/21 04:34:17;;;;;;;28.07;10.80;;;1.80;81.60;;;;;;5013300;28;20144;-86
2023/01/21 04:36:44;;;;;;;26.58;10.13;;;1.80;81.60;;;;;;4992790;28;20371;-86
2023/01/21 04:39:11;;;;;;;27.50;10.30;;;1.80;81.60;;;;;;4996158;28;20057;-86
2023/01/21 04:41:38;;;;;;;28.27;10.98;;;1.80;81.70;;;;;;4993290;28;20061;-86
2023/01/21 04:44:08;;;;;;;27.52;9.50;;;1.80;81.80;;;;;;4996372;28;20121;-86
2023/01/21 04:46:35;;;;;;;27.07;9.50;;;1.80;81.90;;;;;;5001607;28;20054;-87
2023/01/21 04:49:02;;;;;;;27.67;9.57;;;1.90;82.80;;;;;;5010005;28;20284;-86
2023/01/21 04:51:30;;;;;;;25.98;9.70;;;2.00;82.80;;;;;;4995883;28;20046;-86
2023/01/21 04:53:57;;;;;;;26.33;10.30;;;2.00;82.60;;;;;;4996473;28;20129;-87
2023/01/21 04:56:25;;;;;;;26.52;9.60;;;2.00;82.30;;;;;;4996518;28;20144;-87
2023/01/21 04:58:52;;;;;;;28.93;9.87;;;2.00;82.20;;;;;;4997210;28;20050;-87
2023/01/21 05:01:21;;;;;;;26.85;9.27;;;2.00;82.20;;;;;;4996129;28;20249;-87
2023/01/21 05:03:48;;;;;;;27.90;9.63;;;2.00;82.80;;;;;;4991947;28;20054;-86
2023/01/21 05:06:15;;;;;;;23.80;8.88;;;2.10;82.50;;;;;;4996221;28;20124;-87
2023/01/21 05:08:42;;;;;;;27.77;10.50;;;2.10;82.30;;;;;;4993850;28;20142;-87
2023/01/21 05:11:10;;;;;;;28.47;10.23;;;2.10;82.10;;;;;;5011827;28;20137;-86
2023/01/21 05:13:37;;;;;;;25.67;9.27;;;2.10;82.00;;;;;;5012807;28;20286;-87
2023/01/21 05:16:07;;;;;;;24.92;9.45;;;2.10;81.70;;;;;;4992430;28;20054;-86
2023/01/21 05:18:35;;;;;;;26.45;10.43;;;2.00;81.50;;;;;;4996227;28;20066;-86
2023/01/21 05:21:03;;;;;;;26.63;9.65;;;2.00;81.50;;;;;;4991251;28;20111;-86
2023/01/21 05:23:30;;;;;;;25.47;10.03;;;2.00;81.40;;;;;;4997011;28;20054;-86
2023/01/21 05:25:57;;;;;;;26.20;10.07;;;1.90;81.60;;;;;;4999297;28;20316;-86
2023/01/21 05:28:25;;;;;;;25.70;9.63;;;1.90;81.60;;;;;;4999526;28;20058;-87
2023/01/21 05:30:53;;;;;;;26.70;10.50;;;1.90;81.50;;;;;;4996400;28;20145;-87
2023/01/21 05:33:24;;;;;;;25.77;9.40;;;1.90;81.50;;;;;;4989688;28;20062;-87
2023/01/21 05:35:53;;;;;;;27.10;9.30;;;1.90;81.60;;;;;;4999664;28;20054;-87
2023/01/21 05:38:20;;;;;;;25.65;10.10;;;1.90;81.70;;;;;;4998979;28;20255;-86
2023/01/21 05:40:47;;;;;;;23.45;8.90;;;1.90;81.70;;;;;;5015897;28;20137;-87
2023/01/21 05:43:14;;;;;;;26.33;9.48;;;2.00;81.70;;;;;;5000615;28;20085;-87
2023/01/21 05:45:42;;;;;;;25.58;10.32;;;2.00;81.60;;;;;;4993806;28;20105;-87
2023/01/21 05:48:09;;;;;;;27.83;9.83;;;2.00;81.50;;;;;;5016212;28;20129;-87
2023/01/21 05:50:38;;;;;;;22.65;8.90;;;2.00;81.60;;;;;;4999743;28;20328;-87
2023/01/21 05:53:07;;;;;;;27.50;9.55;;;2.10;81.60;;;;;;5003725;28;20046;-86
2023/01/21 05:55:36;;;;;;;24.63;9.13;;;2.10;81.60;;;;;;5015415;28;20069;-87
2023/01/21 05:58:03;;;;;;;24.17;9.00;;;2.10;81.30;;;;;;4992533;28;20058;-88
2023/01/21 06:00:31;;;;;;;25.13;9.20;;;2.10;81.20;;;;;;4999976;28;20065;-87
2023/01/21 06:03:00;;;;;;;25.48;9.25;;;2.10;81.20;;;;;;4999575;28;20256;-87
2023/01/21 06:05:27;;;;;;;25.25;10.02;;;2.10;81.30;;;;;;4999991;28;20132;-87
2023/01/21 06:07:55;;;;;;;24.58;9.35;;;2.10;81.20;;;;;;5009845;28;20054;-87
2023/01/21 06:10:24;;;;;;;25.73;8.82;;;2.10;81.40;;;;;;4997899;28;20049;-87
2023/01/21 06:12:51;;;;;;;27.87;9.23;;;2.10;81.30;;;;;;5015128;28;20073;-88
2023/01/21 06:15:20;;;;;;;28.13;10.95;;;2.10;81.10;;;;;;4999691;28;20300;-87
2023/01/21 06:17:47;;;;;;;26.45;10.73;;;2.00;81.00;;;;;;4999562;28;20078;-86
2023/01/21 06:20:14;;;;;;;25.40;10.00;;;2.00;81.20;;;;;;4998898;28;20109;-87
2023/01/21 06:22:41;;;;;;;29.55;10.63;;;2.00;81.30;;;;;;4996995;28;20519;-88
2023/01/21 06:25:10;;;;;;;27.83;10.33;;;2.00;81.40;;;;;;4999716;28;20054;-88
2023/01/21 06:27:38;;;;;;;24.80;8.65;;;2.00;81.40;;;;;;4999787;28;20292;-86
2023/01/21 06:30:07;;;;;;;33.70;9.77;;;2.00;81.60;;;;;;4998495;28;20116;-88
2023/01/21 06:32:34;;;;;;;27.35;8.73;;;2.00;81.50;;;;;;5000446;28;20166;-88
2023/01/21 06:35:02;;;;;;;26.45;9.98;;;2.00;82.10;;;;;;5016643;28;20081;-88
2023/01/21 06:37:29;;;;;;;31.20;10.60;;;2.00;82.20;;;;;;4999266;28;20112;-88
2023/01/21 06:39:56;;;;;;;26.98;9.93;;;2.00;81.70;;;;;;5015687;28;20372;-88
2023/01/21 06:42:23;;;;;;;28.92;9.90;;;2.00;81.50;;;;;;4999828;28;20050;-88
2023/01/21 06:44:52;;;;;;;28.25;9.77;;;2.00;81.50;;;;;;4999482;28;20193;-86
2023/01/21 06:47:20;;;;;;;28.45;10.27;;;2.00;81.70;;;;;;5000805;28;20511;-87
2023/01/21 06:49:47;;;;;;;30.97;10.80;;;2.00;81.40;;;;;;4998702;28;20054;-86
2023/01/21 06:52:15;;;;;;;26.48;9.65;;;1.90;81.40;;;;;;4999065;28;20337;-87
2023/01/21 06:54:45;;;;;;;28.52;10.60;;;1.90;81.20;;;;;;4999414;28;20053;-87
2023/01/21 06:57:12;;;;;;;28.77;10.75;;;1.80;80.90;;;;;;4999561;28;20061;-87
2023/01/21 06:59:40;;;;;;;27.67;10.15;;;1.80;80.80;;;;;;5015497;28;20060;-87
2023/01/21 07:02:12;;;;;;;26.60;10.10;;;1.70;81.20;;;;;;4999718;28;20073;-87
2023/01/21 07:04:39;;;;;;;27.23;9.20;;;1.70;81.50;;;;;;4998441;28;20308;-87
2023/01/21 07:07:07;;;;;;;29.73;10.60;;;1.70;81.50;;;;;;4999172;28;20113;-87
2023/01/21 07:09:35;;;;;;;26.27;9.80;;;1.60;81.60;;;;;;5012562;28;20528;-87
2023/01/21 07:12:02;;;;;;;28.02;10.07;;;1.60;81.50;;;;;;4979701;28;20105;-88
2023/01/21 07:14:29;;;;;;;28.20;9.53;;;1.60;82.30;;;;;;4998427;28;20131;-86
2023/01/21 07:16:56;;;;;;;30.90;10.93;;;1.70;82.40;;;;;;5014603;28;20269;-87
2023/01/21 07:19:25;;;;;;;30.33;10.77;;;1.70;82.00;;;;;;4998783;28;20053;-86
2023/01/21 07:21:52;;;;;;;29.20;10.35;;;1.70;81.90;;;;;;4997831;28;20108;-87
2023/01/21 07:24:19;;;;;;;27.35;10.13;;;1.70;81.80;;;;;;5015765;28;20486;-87
2023/01/21 07:26:47;;;;;;;25.43;9.80;;;1.70;81.70;;;;;;4998738;28;20050;-87
2023/01/21 07:29:14;;;;;;;26.25;10.80;;;1.70;81.60;;;;;;4998011;28;20353;-86
2023/01/21 07:31:41;;;;;;;27.70;10.30;;;1.60;81.40;;;;;;4997827;28;20060;-86
2023/01/21 07:34:08;;;;;;;28.83;11.13;;;1.60;81.50;;;;;;4995871;28;20053;-88
2023/01/21 07:36:37;;;;;;;29.10;10.77;;;1.50;81.50;;;;;;4993394;28;20073;-87
2023/01/21 07:39:04;;;;;;;23.13;8.03;;;1.50;81.50;;;;;;4997520;28;20077;-87
2023/01/21 07:41:31;;;;;;;27.58;9.80;;;1.50;81.80;;;;;;4999053;28;20337;-87
2023/01/21 07:43:58;;;;;;;28.67;10.48;;;1.40;82.30;;;;;;5015447;28;20133;-87
2023/01/21 07:46:26;;;;;;;28.40;10.18;;;1.50;82.30;;;;;;4998542;28;20184;-87
2023/01/21 07:48:54;;;;;;;26.05;9.93;;;1.50;82.20;;;;;;4994406;28;20100;-87
2023/01/21 07:51:22;;;;;;;25.87;9.37;;;1.50;82.10;;;;;;4997377;28;20053;-88
2023/01/21 07:53:55;;;;;;;27.55;10.00;;;1.50;82.00;;;;;;4999721;28;20289;-87
2023/01/21 07:56:24;;;;;;;26.58;9.88;;;1.50;82.50;;;;;;5015883;28;20136;-88
2023/01/21 07:58:52;;;;;;;25.80;10.35;;;1.50;82.60;;;;;;5009630;28;20090;-87
2023/01/21 08:01:19;;;;;;;24.83;9.82;;;1.60;82.60;;;;;;4997798;28;20054;-87
2023/01/21 08:03:46;;;;;;;32.93;12.50;;;1.60;82.50;;;;;;4995561;28;20141;-88
2023/01/21 08:06:15;;;;;;;29.20;11.43;;;1.60;82.40;;;;;;4988325;28;20281;-87
2023/01/21 08:08:42;;;;;;;28.23;11.00;;;1.60;82.30;;;;;;4998701;28;20101;-86
2023/01/21 08:11:11;;;;;;;28.90;10.40;;;1.60;82.30;;;;;;4979657;28;20050;-88
2023/01/21 08:13:39;;;;;;;25.55;10.18;;;1.60;82.50;;;;;;4985480;28;20124;-86
2023/01/21 08:16:10;;;;;;;27.43;10.10;;;1.70;82.60;;;;;;4997758;28;21264;-87
2023/01/21 08:18:38;;;;;;;25.83;10.10;;;1.70;82.50;;;;;;4998835;28;20261;-88
2023/01/21 08:21:05;;;;;;;29.85;10.82;;;1.70;82.50;;;;;;4998626;28;20058;-88
2023/01/21 08:23:33;;;;;;;31.13;10.73;;;1.80;82.50;;;;;;5003474;28;20070;-87
2023/01/21 08:26:02;;;;;;;28.50;10.48;;;1.80;82.40;;;;;;4999086;28;20058;-88
2023/01/21 08:28:30;;;;;;;25.90;9.43;;;1.80;82.40;;;;;;5000117;28;20124;-87
2023/01/21 08:31:03;;;;;;;26.75;9.90;;;1.80;82.30;;;;;;4998341;28;20285;-88
2023/01/21 08:33:31;;;;;;;27.35;10.32;;;1.70;82.30;;;;;;4997287;28;20085;-87
2023/01/21 08:36:00;;;;;;;30.70;10.88;;;1.70;82.20;;;;;;5013511;28;20058;-87
2023/01/21 08:38:31;;;;;;;28.45;10.57;;;1.70;82.20;;;;;;5014530;28;20049;-88
2023/01/21 08:41:04;;;;;;;29.67;10.80;;;1.60;82.20;;;;;;4989436;28;20051;-88
2023/01/21 08:43:32;;;;;;;32.25;11.93;;;1.60;82.40;;;;;;5015192;28;20273;-86
2023/01/21 08:46:01;;;;;;;28.63;11.48;;;1.70;82.60;;;;;;4979590;28;20055;-87
2023/01/21 08:48:28;;;;;;;32.97;12.13;;;1.70;82.90;;;;;;4984728;28;20140;-87
2023/01/21 08:50:58;;;;;;;32.90;11.45;;;1.70;83.00;;;;;;5011373;28;20057;-88
2023/01/21 08:53:28;;;;;;;33.60;11.77;;;1.80;83.20;;;;;;4997018;28;20046;-88
2023/01/21 08:55:59;;;;;;;31.48;10.63;;;1.80;83.10;;;;;;4994783;28;20304;-85
2023/01/21 08:58:26;;;;;;;31.98;10.52;;;1.80;83.00;;;;;;5001118;28;20051;-85
2023/01/21 09:00:56;;;;;;;32.78;11.85;;;1.80;82.90;;;;;;5010983;28;20141;-83
2023/01/21 09:03:24;;;;;;;34.33;12.27;;;1.80;82.70;;;;;;5013169;28;20108;-88
2023/01/21 09:05:51;;;;;;;32.53;11.40;;;1.80;82.50;;;;;;4998114;28;20566;-88
2023/01/21 09:08:20;;;;;;;33.17;11.50;;;1.80;82.60;;;;;;4998654;28;20274;-89
2023/01/21 09:11:01;;;;;;;32.65;11.65;;;1.70;82.60;;;;;;5000685;28;20125;-90
2023/01/21 09:13:29;;;;;;;31.25;11.48;;;1.70;82.70;;;;;;5000844;28;20054;-91
2023/01/21 09:15:58;;;;;;;30.60;11.55;;;1.70;82.70;;;;;;5017709;28;20054;-91
2023/01/21 09:18:28;;;;;;;26.23;9.50;;;1.80;82.80;;;;;;5001469;28;20555;-90
2023/01/21 09:21:00;;;;;;;31.08;10.80;;;1.80;83.50;;;;;;5000965;28;20260;-88
2023/01/21 09:23:31;;;;;;;27.15;10.27;;;1.80;83.50;;;;;;5014367;28;20472;-91
2023/01/21 09:26:03;;;;;;;29.20;11.02;;;1.80;83.40;;;;;;4998447;28;20050;-86
2023/01/21 09:28:31;;;;;;;30.20;11.77;;;1.80;83.00;;;;;;4996837;28;20571;-86
2023/01/21 09:31:02;;;;;;;28.83;11.63;;;1.80;83.40;;;;;;4990227;28;20105;-85
2023/01/21 09:33:31;;;;;;;33.08;12.38;;;1.80;83.20;;;;;;4994191;28;20374;-85
2023/01/21 09:36:00;;;;;;;29.70;11.75;;;1.80;83.10;;;;;;5011408;28;20108;-85
2023/01/21 09:38:28;;;;;;;26.70;10.18;;;1.90;83.30;;;;;;4992181;28;20050;-86
2023/01/21 09:41:00;;;;;;;27.48;10.88;;;1.90;82.90;;;;;;5010076;28;20045;-86
2023/01/21 09:43:36;;;;;;;27.83;11.07;;;1.80;82.60;;;;;;5008484;28;20047;-86
2023/01/21 09:46:07;;;;;;;27.38;10.52;;;1.80;82.50;;;;;;4987677;28;20360;-86
2023/01/21 09:48:38;;;;;;;31.67;12.30;;;1.70;82.60;;;;;;5003319;28;20173;-86
2023/01/21 09:51:13;;;;;;;31.60;12.32;;;1.70;82.70;;;;;;4987226;28;20052;-84
2023/01/21 09:53:47;;;;;;;30.50;12.75;;;1.70;82.90;;;;;;4991254;28;20141;-85
2023/01/21 09:56:23;;;;;;;31.80;12.90;;;1.70;83.00;;;;;;4994985;28;20072;-85
2023/01/21 09:58:57;;;;;;;33.35;12.20;;;1.70;83.00;;;;;;4996700;28;20296;-85
2023/01/21 10:01:31;;;;;;;33.08;12.52;;;1.80;83.10;;;;;;4997227;28;20998;-82
2023/01/21 10:04:04;;;;;;;28.60;11.30;;;1.80;83.10;;;;;;5008527;28;20060;-83
2023/01/21 10:06:41;;;;;;;32.03;13.05;;;1.80;83.20;;;;;;4994574;28;20050;-84
2023/01/21 10:09:41;;;;;;;31.97;12.67;;;1.90;83.20;;;;;;5011789;28;20058;-84
2023/01/21 10:12:21;;;;;;;30.15;12.98;;;1.90;83.20;;;;;;4995985;28;20337;-83
2023/01/21 10:15:13;;;;;;;31.95;12.25;;;1.90;83.20;;;;;;4994092;28;20887;-83
2023/01/21 10:17:53;;;;;;;29.25;11.77;;;1.90;83.20;;;;;;4995738;28;20060;-85
2023/01/21 10:20:49;;;;;;;27.23;11.55;;;2.00;83.30;;;;;;5015274;28;20073;-84
2023/01/21 10:23:22;;;;;;;31.37;12.30;;;2.00;83.30;;;;;;4996612;28;20534;-84
2023/01/21 10:25:50;;;;;;;27.52;11.70;;;2.00;83.30;;;;;;4997385;28;20340;-85
2023/01/21 10:28:22;;;;;;;28.80;11.75;;;2.10;83.30;;;;;;5013568;28;20164;-84
2023/01/21 10:30:52;;;;;;;28.05;11.20;;;2.10;83.30;;;;;;4995056;28;20046;-82
2023/01/21 10:33:22;;;;;;;32.55;11.70;;;2.10;83.30;;;;;;4998265;28;20057;-82
2023/01/21 10:36:19;;;;;;;29.97;12.00;;;2.20;83.40;;;;;;5012630;28;21092;-83
2023/01/21 10:38:57;;;;;;;28.20;10.70;;;2.20;83.40;;;;;;5024619;28;20269;-84
2023/01/21 10:41:40;;;;;;;28.27;11.88;;;2.30;83.30;;;;;;4994204;28;20133;-84
2023/01/21 10:44:18;;;;;;;29.17;11.60;;;2.30;83.30;;;;;;4991182;28;20073;-87
2023/01/21 10:46:51;;;;;;;30.70;12.00;;;2.30;83.30;;;;;;4994508;28;20058;-84
2023/01/21 10:49:28;;;;;;;27.40;10.73;;;2.40;83.50;;;;;;5009697;28;20148;-84
2023/01/21 10:52:01;;;;;;;28.55;11.68;;;2.40;83.60;;;;;;4992136;28;20888;-84
2023/01/21 10:54:38;;;;;;;28.23;11.35;;;2.40;83.60;;;;;;5001701;28;20058;-85
2023/01/21 10:57:17;;;;;;;27.63;10.98;;;2.50;83.60;;;;;;4995882;28;20073;-85
2023/01/21 10:59:45;;;;;;;28.95;10.57;;;2.50;84.00;;;;;;5009281;28;20049;-83
2023/01/21 11:02:21;;;;;;;30.27;11.37;;;2.50;83.90;;;;;;4994915;28;20053;-81
2023/01/21 11:04:52;;;;;;;28.65;10.73;;;2.60;83.70;;;;;;5011878;28;20356;-86
2023/01/21 11:07:22;;;;;;;26.70;10.93;;;2.60;83.60;;;;;;4995174;28;20054;-83
2023/01/21 11:09:49;;;;;;;27.83;11.32;;;2.60;83.20;;;;;;4995821;28;20057;-83
2023/01/21 11:12:19;;;;;;;27.20;10.70;;;2.60;83.40;;;;;;5011287;28;20159;-88
2023/01/21 11:14:50;;;;;;;21.67;6.47;;;2.70;83.40;;;;;;5013404;28;20074;-81
2023/01/21 11:17:31;;;;;;;27.40;11.43;;;2.70;83.30;;;;;;5012835;28;20300;-82
2023/01/21 11:20:03;;;;;;;30.92;11.05;;;2.70;83.20;;;;;;4992909;28;20156;-81
2023/01/21 11:22:31;;;;;;;30.88;11.65;;;2.70;83.40;;;;;;4977724;28;20665;-82
2023/01/21 11:25:01;;;;;;;27.85;11.20;;;2.70;83.70;;;;;;4994102;28;20061;-82
2023/01/21 11:27:34;;;;;;;29.77;11.50;;;2.70;83.70;;;;;;5012447;28;20054;-82
2023/01/21 11:30:01;;;;;;;25.92;11.75;;;2.80;83.60;;;;;;5012437;28;20731;-86
2023/01/21 11:32:30;;;;;;;25.85;10.98;;;2.80;83.70;;;;;;4996099;28;20058;-80
2023/01/21 11:35:03;;;;;;;26.38;10.70;;;2.90;83.90;;;;;;5012619;28;20046;-83
2023/01/21 11:37:31;;;;;;;24.48;10.77;;;2.90;84.10;;;;;;5020715;28;20100;-84
2023/01/21 11:40:01;;;;;;;29.20;11.67;;;3.00;84.60;;;;;;5012442;28;20147;-85
2023/01/21 11:42:28;;;;;;;26.73;11.48;;;3.10;84.50;;;;;;4997793;28;20258;-84
2023/01/21 11:44:57;;;;;;;27.73;10.88;;;3.20;84.60;;;;;;4995637;28;20121;-85
2023/01/21 11:47:30;;;;;;;25.35;10.43;;;3.30;84.50;;;;;;4996484;28;20534;-84
2023/01/21 11:50:12;;;;;;;25.27;10.95;;;3.30;84.70;;;;;;5011492;28;20050;-84
2023/01/21 11:52:40;;;;;;;25.90;10.67;;;3.50;85.00;;;;;;4995228;28;20054;-83
2023/01/21 11:55:19;;;;;;;20.88;10.38;;;3.50;84.70;;;;;;4995109;28;20345;-83
2023/01/21 11:57:50;;;;;;;25.02;11.23;;;3.60;84.50;;;;;;4994179;28;20057;-83
2023/01/21 12:00:20;;;;;;;25.85;10.85;;;3.70;84.40;;;;;;5010168;28;20062;-82
2023/01/21 12:02:50;;;;;;;21.73;10.15;;;3.90;84.30;;;;;;5011780;28;20137;-83
2023/01/21 12:05:25;;;;;;;27.00;10.80;;;4.00;84.10;;;;;;5011954;28;20563;-82
2023/01/21 12:07:55;;;;;;;24.02;11.10;;;4.10;84.10;;;;;;4995338;28;20313;-82
2023/01/21 12:10:32;;;;;;;24.17;10.45;;;4.20;84.20;;;;;;5011284;28;20815;-82
2023/01/21 12:13:18;;;;;;;24.63;9.90;;;4.30;83.90;;;;;;5011038;28;20090;-82
2023/01/21 12:16:20;;;;;;;23.83;10.98;;;4.30;83.70;;;;;;5011164;28;20061;-83
2023/01/21 12:19:05;;;;;;;24.33;10.50;;;4.40;83.30;;;;;;5010282;28;20563;-86
2023/01/21 12:21:46;;;;;;;24.92;10.02;;;4.50;83.10;;;;;;5012047;28;20269;-85
2023/01/21 12:24:29;;;;;;;22.27;9.80;;;4.50;82.90;;;;;;5012406;28;20514;-87
2023/01/21 12:27:03;;;;;;;21.55;9.52;;;4.60;82.60;;;;;;4994967;28;20104;-87
2023/01/21 12:29:47;;;;;;;19.65;8.70;;;4.70;82.60;;;;;;4996766;28;20058;-86
2023/01/21 12:32:20;;;;;;;21.17;8.87;;;4.70;82.40;;;;;;4977417;28;20050;-86
2023/01/21 12:34:54;;;;;;;20.13;8.43;;;4.70;82.10;;;;;;4989878;28;20258;-87
2023/01/21 12:37:29;;;;;;;18.80;9.00;;;4.80;82.00;;;;;;4994405;28;20059;-87
2023/01/21 12:39:59;;;;;;;20.80;9.73;;;4.90;81.70;;;;;;4995623;28;20574;-87
2023/01/21 12:42:32;;;;;;;19.77;10.00;;;4.90;81.60;;;;;;5011629;28;20077;-88
2023/01/21 12:45:04;;;;;;;20.10;9.20;;;4.90;81.40;;;;;;4995560;28;20057;-87
2023/01/21 12:47:39;;;;;;;21.95;9.52;;;4.90;81.20;;;;;;5011112;28;20252;-86
2023/01/21 12:50:24;;;;;;;20.55;9.25;;;5.00;80.90;;;;;;4989646;28;20061;-88
2023/01/21 12:53:02;;;;;;;19.52;9.00;;;5.00;80.80;;;;;;5006893;28;20506;-85
2023/01/21 12:55:38;;;;;;;18.83;8.30;;;5.00;80.70;;;;;;5009212;28;20065;-85
2023/01/21 12:58:12;;;;;;;17.10;8.50;;;5.00;80.60;;;;;;4995028;28;20124;-87
2023/01/21 13:00:45;;;;;;;14.65;6.93;;;5.00;80.40;;;;;;4990247;28;20281;-86
2023/01/21 13:03:21;;;;;;;15.48;7.10;;;5.00;80.30;;;;;;5011201;28;20062;-87